TOURFACTS.DK  
Stats and Facts from Tour de France.

Tour de France 2018 starts in 257 days
  Riders   Stages   Teams   Summits   Yearly  


 
Search by year

 2017 - St. 21:  14824 starters.
  5131 different riders.
  634 teams.
  2232 stages.
  454 restdays.
  439589.60 km.
  5653 abandonnees.


Top 3
Christopher Froome86:20:55
Rigoberto Uran86:21:49
Romain Bardet86:23:15
Warren Barguil169 pt.
Primoz Roglic80 pt.
Thomas De Gendt64 pt.
Michael Matthews359 pt.
André Greipel234 pt.
Edvald Boasson Hagen220 pt.
Simon Yates86:27:09
Louis Meintjes86:29:15
Emanuel Buchmann86:54:16
Facts from Tour de France 2009
  |   Stages.  |   Stage winners.  |   Days in yellow  |   Average speed.  |   Route.  |   Teams.  |   All riders.  |   Rookies.  |   Withdrawls.  |  

  |   GC.  |   Polka  |   Green  |   White  |   Summits. (In tour)  |   Summits. (Points)  |   Miscellaneous.  |  

Stage 15 on 19 - 07 - 2009
         Owning:    Alberto Contador    
Pick a stage:  1 2 3 4 5 6 7 8 9 10 11 12 13 14 15 16 17 18 19 20 21
  PontarlierVerbier | Dist: 207.50 km.
Cat: 3Côte de RafouxITAFranco Pellizotti
4 points
 
Cat: 3EtroitsITAFranco Pellizotti
4 points
 
Cat: 3Côte de CarriareFRAChristophe Kern
4 points
 
Cat: 3Côte de PravonloupCANRyder Hesjedal
4 points
 
Cat: 2Col des MossesFRAPierrick Fédrigo
10 points
 
Cat: 1VerbierESPAlberto Contador
30 points
 

Average speed for all riders in stage:  39,603 km./hr.
    Place:Name:Team:Time:Km/h:
ESPAlberto ContadorKAZAstana Pro Team05:03:58  +  00:00:00=40,958 
LUXAndy SchleckDNKTeam Saxo Bank05:04:41  +  00:00:43=40,862 
ITAVincenzo NibaliITALiquigas05:05:01  +  00:01:03=40,817 
4 LUXFränk SchleckDNKTeam Saxo Bank05:05:04  +  00:01:06=40,811 
5 BELBradley WigginsUSAGarmin-Slipstream05:05:04  +  00:01:06=40,811 
6 ESPCarlos SastreCHECervelo Test Team05:05:04  +  00:01:06=40,811 
7 AUSCadel EvansBELSilence-Lotto05:05:24  +  00:01:26=40,766 
8 GERAndréas KlödenKAZAstana Pro Team05:05:27  +  00:01:29=40,760 
9 USALance ArmstrongKAZAstana Pro Team05:05:33  +  00:01:35=40,746 
10 LUXKim KirchenUSATeam Columbia-HTC05:05:53  +  00:01:55=40,702 
11 CZERoman KreuzigerITALiquigas05:06:04  +  00:02:06=40,677 
12 GERTony MartinUSATeam Columbia-HTC05:06:11  +  00:02:13=40,662 
13 RUSVladimir KarpetsRUSTeam Katusha05:06:11  +  00:02:13=40,662 
14 BELMaxime MonfortUSATeam Columbia-HTC05:06:21  +  00:02:23=40,640 
15 FRAChristophe Le MevelFRAFrancaise Des Jeux05:06:30  +  00:02:32=40,620 
16 ESPIgor AntonESPEuskaltel - Euskadi05:06:31  +  00:02:33=40,618 
17 BELJurgen Van Den BroeckBELSilence-Lotto05:06:31  +  00:02:33=40,618 
18 SVKPeter VelitsDEUTeam Milram05:06:34  +  00:02:36=40,611 
19 ITARinaldo NocentiniFRAAg2r La Mondiale05:06:34  +  00:02:36=40,611 
20 ESPJosé Ángel GomezCHECervelo Test Team05:06:34  +  00:02:36=40,611 
21 ESPMikel AstarlozaESPEuskaltel - Euskadi05:06:39  +  00:02:41=40,600 
22 USAChristian VandeveldeUSAGarmin-Slipstream05:06:39  +  00:02:41=40,600 
23 FRASandy CasarFRAFrancaise Des Jeux05:06:39  +  00:02:41=40,600 
24 AUSMatthew LloydBELSilence-Lotto05:06:50  +  00:02:52=40,576 
25 FRABrice FeilluFRAAgritubel05:07:12  +  00:03:14=40,527 
26 FRAChristophe KernFRACofidis Le Credit En Ligne05:07:12  +  00:03:14=40,527 
27 FRAStéphane GoubertFRAAg2r La Mondiale05:07:12  +  00:03:14=40,527 
28 ESPLuis León SánchezESPCaisse d´Epargne05:07:15  +  00:03:17=40,521 
29 FRAPierre RollandFRABbox Bouygues Telecom05:07:22  +  00:03:24=40,505 
30 FRAMaxime BouetFRAAgritubel05:07:34  +  00:03:36=40,479 
31 ESPAmets TxurrukaESPEuskaltel - Euskadi05:07:41  +  00:03:43=40,464 
32 RUSAlexandre BotcharovRUSTeam Katusha05:07:41  +  00:03:43=40,464 
33 UKRVolodymir GustovCHECervelo Test Team05:07:41  +  00:03:43=40,464 
34 RUSYury TrofimovFRABbox Bouygues Telecom05:07:41  +  00:03:43=40,464 
35 FRAHubert DupontFRAAg2r La Mondiale05:07:52  +  00:03:54=40,440 
36 USAGeorge HincapieUSATeam Columbia-HTC05:08:04  +  00:04:06=40,413 
37 DENChris Anker SørensenDNKTeam Saxo Bank05:08:04  +  00:04:06=40,413 
38 GERLinus GerdemannDEUTeam Milram05:08:04  +  00:04:06=40,413 
39 FRASylvain ChavanelBELQuick Step05:08:04  +  00:04:06=40,413 
40 DENNicki SørensenDNKTeam Saxo Bank05:08:08  +  00:04:10=40,405 
41 GERChristian KneesDEUTeam Milram05:08:08  +  00:04:10=40,405 
42 SUIFabian CancellaraDNKTeam Saxo Bank05:08:12  +  00:04:14=40,396 
43 FRAChristophe MoreauFRAAgritubel05:08:18  +  00:04:20=40,383 
44 CANRyder HesjedalUSAGarmin-Slipstream05:08:21  +  00:04:23=40,376 
45 FRAPierrick FédrigoFRABbox Bouygues Telecom05:08:36  +  00:04:38=40,343 
46 FRASylvain CalzatiFRAAgritubel05:08:41  +  00:04:43=40,333 
47 FINCharles WegeliusBELSilence-Lotto05:08:56  +  00:04:58=40,300 
48 NEDLaurens ten DamNLDRabobank05:09:05  +  00:05:07=40,280 
49 SUIDavid LoosliITALampre-N.G.C05:09:19  +  00:05:21=40,250 
50 COLLeonardo DuqueFRACofidis Le Credit En Ligne05:09:22  +  00:05:24=40,244 
51 ESPJoan HorrachRUSTeam Katusha05:09:22  +  00:05:24=40,244 
52 FRARémi PauriolFRACofidis Le Credit En Ligne05:09:28  +  00:05:30=40,231 
53 FRANicolas VogondyFRAAgritubel05:09:28  +  00:05:30=40,231 
54 FRALaurent LefèvreFRABbox Bouygues Telecom05:09:28  +  00:05:30=40,231 
55 ESPLuis RodriguezESPCaisse d´Epargne05:09:47  +  00:05:49=40,189 
56 BELStijn VandenberghRUSTeam Katusha05:09:47  +  00:05:49=40,189 
57 JPNFumiyuki BeppuNLDSkil-Shimano05:09:50  +  00:05:52=40,183 
58 FRANicolas RocheFRAAg2r La Mondiale05:10:20  +  00:06:22=40,118 
59 ESPHaimar ZubeldiaKAZAstana Pro Team05:10:20  +  00:06:22=40,118 
60 FRACyril DesselFRAAg2r La Mondiale05:10:20  +  00:06:22=40,118 
61 GERGrischa NiermannNLDRabobank05:10:20  +  00:06:22=40,118 
62 NEDMartijn MaaskantUSAGarmin-Slipstream05:10:20  +  00:06:22=40,118 
63 FRAJérémy RoyFRAFrancaise Des Jeux05:10:20  +  00:06:22=40,118 
64 FRAMickael DelageBELSilence-Lotto05:10:20  +  00:06:22=40,118 
65 RUSDenis MenchovNLDRabobank05:10:25  +  00:06:27=40,107 
66 PORSergio PaulinhoKAZAstana Pro Team05:10:51  +  00:06:53=40,051 
67 COLRigoberto UranESPCaisse d´Epargne05:10:51  +  00:06:53=40,051 
68 BELStijn DevolderBELQuick Step05:10:55  +  00:06:57=40,043 
69 RUSNikolai TrusovRUSTeam Katusha05:11:24  +  00:07:26=39,981 
70 SLOSimon SpilakITALampre-N.G.C05:11:24  +  00:07:26=39,981 
71 ESPGorka VerdugoESPEuskaltel - Euskadi05:11:39  +  00:07:41=39,949 
72 UKRYaroslav PopovychKAZAstana Pro Team05:11:54  +  00:07:56=39,917 
73 ESPIñigo CuestaCHECervelo Test Team05:11:54  +  00:07:56=39,917 
74 NEDKoen De KortNLDSkil-Shimano05:11:54  +  00:07:56=39,917 
75 FRAGeoffroy LequatreFRAAgritubel05:11:54  +  00:07:56=39,917 
76 AUSHeinrich HausslerCHECervelo Test Team05:11:54  +  00:07:56=39,917 
77 NZLHayden RoulstonCHECervelo Test Team05:11:54  +  00:07:56=39,917 
78 RUSSerguei IvanovRUSTeam Katusha05:11:54  +  00:07:56=39,917 
79 GERJens VoigtDNKTeam Saxo Bank05:12:20  +  00:08:22=39,861 
80 SWEGustav LarssonDNKTeam Saxo Bank05:12:37  +  00:08:39=39,825 
81 FRAArnaud CoyotESPCaisse d´Epargne05:15:29  +  00:11:31=39,463 
82 ITAFilippo PozzatoRUSTeam Katusha05:16:09  +  00:12:11=39,380 
83 ITAMarco BandieraITALampre-N.G.C05:16:09  +  00:12:11=39,380 
84 ESPJosé Joaquin RojasESPCaisse d´Epargne05:16:09  +  00:12:11=39,380 
85 ESPJuan Manuel GarateNLDRabobank05:16:09  +  00:12:11=39,380 
86 FRAThierry HupondNLDSkil-Shimano05:16:09  +  00:12:11=39,380 
87 NEDJoost PosthumaNLDRabobank05:16:09  +  00:12:11=39,380 
88 GERBert GrabschUSATeam Columbia-HTC05:16:09  +  00:12:11=39,380 
89 ESPAlan PerezESPEuskaltel - Euskadi05:16:09  +  00:12:11=39,380 
90 ESPRuben PerezESPEuskaltel - Euskadi05:16:09  +  00:12:11=39,380 
91 GERSimon GeschkeNLDSkil-Shimano05:16:09  +  00:12:11=39,380 
92 FRAAmaël MoinardFRACofidis Le Credit En Ligne05:16:09  +  00:12:11=39,380 
93 ESPEgoi MartínezESPEuskaltel - Euskadi05:16:09  +  00:12:11=39,380 
94 ITAMarzio BruseghinITALampre-N.G.C05:16:09  +  00:12:11=39,380 
95 BELStaf ScheirlinckxBELSilence-Lotto05:16:09  +  00:12:11=39,380 
96 FRAAlexandre PichotFRABbox Bouygues Telecom05:16:09  +  00:12:11=39,380 
97 FRADavid MoncoutiéFRACofidis Le Credit En Ligne05:16:09  +  00:12:11=39,380 
98 ITAFranco PellizottiITALiquigas05:16:09  +  00:12:11=39,380 
99 GERSebastian LangBELSilence-Lotto05:16:09  +  00:12:11=39,380 
100 AUSMichael RogersUSATeam Columbia-HTC05:16:09  +  00:12:11=39,380 
101 ESPJosé Ivan GutierrezESPCaisse d´Epargne05:16:09  +  00:12:11=39,380 
102 GERJohannes FröhlingerDEUTeam Milram05:16:09  +  00:12:11=39,380 
103 MLTDavid MillarUSAGarmin-Slipstream05:16:09  +  00:12:11=39,380 
104 USADavid ZabriskieUSAGarmin-Slipstream05:16:09  +  00:12:11=39,380 
105 FINJussi VeikkanenFRAFrancaise Des Jeux05:16:09  +  00:12:11=39,380 
106 GERFabian WegmannDEUTeam Milram05:16:09  +  00:12:11=39,380 
107 BELJohan VansummerenBELSilence-Lotto05:16:09  +  00:12:11=39,380 
108 BELGreg Van AvermaetBELSilence-Lotto05:16:09  +  00:12:11=39,380 
109 ITAAlessandro BallanITALampre-N.G.C05:17:09  +  00:13:11=39,256 
110 ITAMauro SantambrogioITALampre-N.G.C05:17:09  +  00:13:11=39,256 
111 ITAMatteo TosattoBELQuick Step05:17:09  +  00:13:11=39,256 
112 FRASébastien MinardFRACofidis Le Credit En Ligne05:17:13  +  00:13:15=39,248 
113 ESPBingen FernandezFRACofidis Le Credit En Ligne05:17:13  +  00:13:15=39,248 
114 AUSStuart O'GradyDNKTeam Saxo Bank05:17:13  +  00:13:15=39,248 
115 USADanny PateUSAGarmin-Slipstream05:17:13  +  00:13:15=39,248 
116 ESPDavid ArroyoESPCaisse d´Epargne05:17:33  +  00:13:35=39,206 
117 NEDStef ClementNLDRabobank05:18:11  +  00:14:13=39,128 
118 ARGJuan Antonio FlechaNLDRabobank05:18:11  +  00:14:13=39,128 
119 FRAJonathan HivertNLDSkil-Shimano05:18:13  +  00:14:15=39,124 
120 GERMarkus FothenDEUTeam Milram05:18:13  +  00:14:15=39,124 
121 NEDNiki TerpstraDEUTeam Milram05:18:44  +  00:14:46=39,061 
122 SUIGregory RastKAZAstana Pro Team05:22:10  +  00:18:12=38,645 
123 NORThor HushovdCHECervelo Test Team05:22:10  +  00:18:12=38,645 
124 ITAFabio SabatiniITALiquigas05:22:10  +  00:18:12=38,645 
125 AUTBernhard EiselUSATeam Columbia-HTC05:22:10  +  00:18:12=38,645 
126 BLRAliaksandr KuchynskiITALiquigas05:22:10  +  00:18:12=38,645 
127 BELSébastien RosselerBELQuick Step05:22:10  +  00:18:12=38,645 
128 FRAWilliam BonnetFRABbox Bouygues Telecom05:22:10  +  00:18:12=38,645 
129 AUSMark RenshawUSATeam Columbia-HTC05:22:10  +  00:18:12=38,645 
130 IOMMark CavendishUSATeam Columbia-HTC05:22:10  +  00:18:12=38,645 
131 KAZDmitriy MuravyevKAZAstana Pro Team05:22:10  +  00:18:12=38,645 
132 FRAThomas VoecklerFRABbox Bouygues Telecom05:22:10  +  00:18:12=38,645 
133 DENBrian VandborgITALiquigas05:22:10  +  00:18:12=38,645 
134 ESPCarlos BarredoBELQuick Step05:22:10  +  00:18:12=38,645 
135 FRASaid HaddouFRABbox Bouygues Telecom05:22:10  +  00:18:12=38,645 
136 USATyler FarrarUSAGarmin-Slipstream05:22:10  +  00:18:12=38,645 
137 FRAStéphane AugeFRACofidis Le Credit En Ligne05:22:10  +  00:18:12=38,645 
138 FRASamuel DumoulinFRACofidis Le Credit En Ligne05:22:10  +  00:18:12=38,645 
139 ESPJuan José OrozESPEuskaltel - Euskadi05:22:10  +  00:18:12=38,645 
140 FRAJérôme PineauBELQuick Step05:22:10  +  00:18:12=38,645 
141 AUSBrett LancasterCHECervelo Test Team05:22:10  +  00:18:12=38,645 
142 ESPJose Luis ArrietaFRAAg2r La Mondiale05:22:10  +  00:18:12=38,645 
143 FRAChristophe RiblonFRAAg2r La Mondiale05:22:10  +  00:18:12=38,645 
144 FRAAnthony GeslinFRAFrancaise Des Jeux05:22:10  +  00:18:12=38,645 
145 RUSMikhail IgnatyevRUSTeam Katusha05:22:10  +  00:18:12=38,645 
146 ITAAlessandro VanottiITALiquigas05:22:10  +  00:18:12=38,645 
147 JPNYukiya ArashiroFRABbox Bouygues Telecom05:22:10  +  00:18:12=38,645 
148 NZLJulian DeanUSAGarmin-Slipstream05:22:10  +  00:18:12=38,645 
149 GERGerald CiolekDEUTeam Milram05:22:10  +  00:18:12=38,645 
150 FRACyril LemoineNLDSkil-Shimano05:22:10  +  00:18:12=38,645 
151 POLMarcin SapaITALampre-N.G.C05:22:10  +  00:18:12=38,645 
152 ESPOscar FreireNLDRabobank05:22:10  +  00:18:12=38,645 
153 ITADaniele BennatiITALiquigas05:22:10  +  00:18:12=38,645 
154 GERAndreas KlierCHECervelo Test Team05:22:10  +  00:18:12=38,645 
155 BELFrederik WillemsITALiquigas05:22:10  +  00:18:12=38,645 
156 NEDAlbert TimmerNLDSkil-Shimano05:22:22  +  00:18:24=38,621 
157 ITADaniele RighiITALampre-N.G.C05:22:22  +  00:18:24=38,621 
158 FRABenoit VaugrenardFRAFrancaise Des Jeux05:22:22  +  00:18:24=38,621 
159 FRALloyd MondoryFRAAg2r La Mondiale05:24:02  +  00:20:04=38,422 
160 NEDSteven de JonghBELQuick Step05:37:30  +  00:33:32=36,889 
161 BLRYauheni HutarovichFRAFrancaise Des Jeux05:37:30  +  00:33:32=36,889 
162 NEDKenny van HummelNLDSkil-Shimano05:49:41  +  00:45:43=35,604 


Todays birthdays.

1870  Hippolyte Pagie
1884  Henri Devroye
1886  Ernest Ricaux
1896  Andre Zonnequin
1897  Jean Kienlen
1903  Robert Brugére
1930  Fred De Bruyne
1930  Jean-Claude Grèt
1932  Vito Favero
1932  Norbert Kerckhove
1946  Ronald De Witte
1967  Johan Verstrepen
1969  Orlando Sergio Gomes